createdAt,value
2019-01-11T00:04:43.945Z,2.10
2019-01-11T00:07:31.871Z,2.10
2019-01-11T00:10:19.845Z,2.10
2019-01-11T00:13:07.832Z,2.00
2019-01-11T00:15:55.901Z,2.00
2019-01-11T00:18:43.757Z,2.00
2019-01-11T00:21:24.390Z,2.10
2019-01-11T00:23:52.949Z,2.10
2019-01-11T00:26:40.900Z,2.10
2019-01-11T00:29:28.809Z,2.10
2019-01-11T00:32:16.833Z,2.10
2019-01-11T00:35:05.015Z,2.00
2019-01-11T00:37:52.951Z,2.10
2019-01-11T00:40:40.879Z,2.10
2019-01-11T00:43:28.777Z,2.20
2019-01-11T00:46:16.724Z,2.10
2019-01-11T00:49:04.795Z,2.20
2019-01-11T00:51:52.724Z,2.20
2019-01-11T00:54:40.637Z,2.20
2019-01-11T00:57:28.626Z,2.20
2019-01-11T01:00:37.401Z,2.20
2019-01-11T01:03:25.409Z,2.30
2019-01-11T01:06:13.434Z,2.40
2019-01-11T01:09:01.428Z,2.40
2019-01-11T01:11:49.368Z,2.30
2019-01-11T01:14:37.279Z,2.40
2019-01-11T01:20:11.869Z,2.40
2019-01-11T01:22:53.284Z,2.40
2019-01-11T01:25:34.198Z,2.40
2019-01-11T01:28:15.352Z,2.40
2019-01-11T01:30:55.821Z,2.40
2019-01-11T01:33:36.915Z,2.50
2019-01-11T01:36:17.565Z,2.50
2019-01-11T01:38:58.693Z,2.50
2019-01-11T01:41:39.701Z,2.50
2019-01-11T01:44:20.709Z,2.50
2019-01-11T01:47:01.473Z,2.50
2019-01-11T01:49:42.297Z,2.50
2019-01-11T01:52:23.385Z,2.50
2019-01-11T01:55:04.502Z,2.50
2019-01-11T01:57:45.741Z,2.50
2019-01-11T02:00:27.014Z,2.50
2019-01-11T02:03:08.198Z,2.50
2019-01-11T02:05:48.978Z,2.70
2019-01-11T02:08:30.505Z,2.70
2019-01-11T02:11:11.818Z,2.70
2019-01-11T02:13:52.412Z,2.70
2019-01-11T02:16:33.049Z,2.70
2019-01-11T02:19:13.749Z,2.70
2019-01-11T02:21:55.025Z,2.70
2019-01-11T02:24:35.806Z,2.70
2019-01-11T02:27:16.138Z,2.80
2019-01-11T02:29:56.987Z,2.90
2019-01-11T02:32:37.771Z,2.90
2019-01-11T02:35:18.937Z,2.90
2019-01-11T02:37:59.439Z,2.90
2019-01-11T02:40:40.053Z,3.00
2019-01-11T02:43:20.845Z,3.00
2019-01-11T02:46:01.774Z,3.00
2019-01-11T02:48:42.714Z,3.00
2019-01-11T02:51:24.029Z,3.00
2019-01-11T02:54:04.483Z,3.10
2019-01-11T02:56:45.325Z,3.10
2019-01-11T02:59:24.549Z,3.20
2019-01-11T03:02:24.447Z,3.20
2019-01-11T03:05:02.150Z,3.30
2019-01-11T03:07:50.169Z,3.30
2019-01-11T03:10:38.083Z,3.30
2019-01-11T03:13:26.032Z,3.30
2019-01-11T03:16:13.927Z,3.30
2019-01-11T03:19:01.876Z,3.30
2019-01-11T03:21:49.789Z,3.30
2019-01-11T03:24:30.489Z,3.40
2019-01-11T03:27:10.926Z,3.30
2019-01-11T03:29:51.521Z,3.30
2019-01-11T03:32:32.531Z,3.30
2019-01-11T03:35:15.096Z,3.30
2019-01-11T03:37:57.097Z,3.30
2019-01-11T03:43:23.950Z,3.40
2019-01-11T03:46:11.938Z,3.40
2019-01-11T03:51:58.266Z,3.40
2019-01-11T03:54:46.181Z,3.40
2019-01-11T03:57:34.433Z,3.40
2019-01-11T04:03:29.672Z,3.40
2019-01-11T04:06:17.587Z,3.40
2019-01-11T04:09:26.257Z,3.40
2019-01-11T04:12:14.172Z,3.50
2019-01-11T04:15:02.155Z,3.50
2019-01-11T04:18:09.437Z,3.50
2019-01-11T04:20:57.414Z,3.60
2019-01-11T04:23:45.359Z,3.50
2019-01-11T04:26:26.624Z,3.60
2019-01-11T04:29:07.099Z,3.50
2019-01-11T04:31:47.590Z,3.60
2019-01-11T04:34:28.497Z,3.60
2019-01-11T04:37:09.317Z,3.60
2019-01-11T04:39:49.934Z,3.70
2019-01-11T04:42:31.055Z,3.70
2019-01-11T04:45:11.833Z,3.70
2019-01-11T04:47:52.570Z,3.70
2019-01-11T04:50:33.146Z,3.80
2019-01-11T04:53:13.999Z,3.70
2019-01-11T04:55:55.059Z,3.70
2019-01-11T04:58:35.704Z,3.80
2019-01-11T05:01:16.832Z,3.80
2019-01-11T05:03:57.159Z,3.90
2019-01-11T05:06:45.065Z,3.90
2019-01-11T05:09:33.013Z,3.90
2019-01-11T05:12:20.918Z,3.90
2019-01-11T05:15:08.928Z,3.90
2019-01-11T05:17:56.934Z,3.90
2019-01-11T05:20:44.837Z,4.00
2019-01-11T05:23:25.456Z,4.00
2019-01-11T05:26:05.788Z,4.00
2019-01-11T05:28:47.076Z,4.10
2019-01-11T05:31:27.098Z,4.10
2019-01-11T05:34:15.046Z,4.20
2019-01-11T05:37:02.945Z,4.20
2019-01-11T05:39:50.888Z,4.30
2019-01-11T05:42:31.393Z,4.30
2019-01-11T05:45:12.746Z,4.30
2019-01-11T05:47:53.852Z,4.30
2019-01-11T05:50:34.529Z,4.40
2019-01-11T05:53:15.377Z,4.40
2019-01-11T05:55:56.207Z,4.40
2019-01-11T05:58:38.657Z,4.50
2019-01-11T06:01:20.012Z,4.50
2019-01-11T06:04:00.702Z,4.60
2019-01-11T06:06:30.928Z,4.70
2019-01-11T06:09:18.870Z,4.80
2019-01-11T06:12:06.781Z,4.90
2019-01-11T06:14:54.733Z,5.00
2019-01-11T06:17:42.640Z,4.90
2019-01-11T06:20:30.641Z,5.00
2019-01-11T06:23:18.618Z,5.10
2019-01-11T06:26:06.628Z,5.20
2019-01-11T06:28:47.292Z,5.40
2019-01-11T06:31:27.658Z,5.60
2019-01-11T06:34:08.265Z,5.60
2019-01-11T06:36:48.968Z,5.70
2019-01-11T06:39:29.657Z,5.70
2019-01-11T06:42:11.673Z,5.60
2019-01-11T06:44:52.785Z,5.50
2019-01-11T06:47:33.337Z,5.40
2019-01-11T06:50:14.208Z,5.40
2019-01-11T06:52:55.539Z,5.40
2019-01-11T06:55:36.557Z,5.30
2019-01-11T06:58:17.029Z,5.30
2019-01-11T07:00:57.698Z,5.20
2019-01-11T07:03:38.103Z,5.20
2019-01-11T07:06:18.646Z,5.30
2019-01-11T07:08:58.227Z,5.30
2019-01-11T07:11:46.133Z,5.30
2019-01-11T07:14:26.841Z,5.30
2019-01-11T07:17:07.737Z,5.30
2019-01-11T07:19:48.089Z,5.30
2019-01-11T07:22:29.333Z,5.40
2019-01-11T07:25:10.045Z,5.40
2019-01-11T07:27:52.201Z,5.40
2019-01-11T07:30:34.909Z,5.40
2019-01-11T07:33:16.264Z,5.40
2019-01-11T07:35:58.345Z,5.40
2019-01-11T07:38:26.941Z,5.40
2019-01-11T07:41:14.889Z,5.50
2019-01-11T07:44:02.866Z,5.50
2019-01-11T07:46:50.811Z,5.50
2019-01-11T07:49:38.748Z,5.60
2019-01-11T07:52:26.728Z,5.60
2019-01-11T07:55:14.825Z,5.70
2019-01-11T07:58:02.769Z,5.70
2019-01-11T08:00:50.723Z,5.80
2019-01-11T08:03:38.726Z,5.80
2019-01-11T08:09:20.085Z,5.90
2019-01-11T08:12:08.093Z,5.90
2019-01-11T08:14:49.429Z,6.00
2019-01-11T08:17:30.121Z,6.00
2019-01-11T08:20:10.589Z,6.10
2019-01-11T08:22:49.461Z,6.10
2019-01-11T08:25:37.396Z,6.20
2019-01-11T08:28:25.415Z,6.20
2019-01-11T08:31:13.328Z,6.20
2019-01-11T08:34:01.310Z,6.30
2019-01-11T08:39:42.897Z,6.40
2019-01-11T08:42:30.825Z,6.40
2019-01-11T08:45:18.781Z,6.40
2019-01-11T08:48:06.685Z,6.50
2019-01-11T08:50:54.612Z,6.50
2019-01-11T08:53:42.567Z,6.60
2019-01-11T08:56:30.598Z,6.70
2019-01-11T08:59:18.546Z,6.70
2019-01-11T09:02:06.501Z,6.70
2019-01-11T09:04:54.389Z,6.80
2019-01-11T09:10:51.001Z,6.80
2019-01-11T09:13:39.422Z,6.80
2019-01-11T09:16:27.371Z,6.90
2019-01-11T09:19:08.260Z,6.90
2019-01-11T09:21:49.342Z,6.90
2019-01-11T09:24:30.354Z,6.90
2019-01-11T09:27:11.394Z,6.90
2019-01-11T09:29:52.600Z,6.90
2019-01-11T09:32:33.617Z,7.00
2019-01-11T09:35:14.721Z,7.00
2019-01-11T09:37:55.799Z,7.00
2019-01-11T09:40:36.969Z,7.10
2019-01-11T09:43:17.462Z,7.10
2019-01-11T09:45:58.181Z,7.10
2019-01-11T09:48:38.957Z,7.20
2019-01-11T09:51:19.677Z,7.20
2019-01-11T09:54:00.808Z,7.20
2019-01-11T09:56:41.957Z,7.20
2019-01-11T09:59:22.729Z,7.20
2019-01-11T10:02:07.866Z,7.20
2019-01-11T10:04:48.640Z,7.20
2019-01-11T10:07:28.730Z,7.20
2019-01-11T10:09:57.556Z,7.20
2019-01-11T10:12:45.504Z,7.20
2019-01-11T10:15:33.485Z,7.20
2019-01-11T10:18:14.855Z,7.20
2019-01-11T10:20:55.210Z,7.20
2019-01-11T10:23:36.259Z,7.30
2019-01-11T10:26:17.551Z,7.30
2019-01-11T10:28:58.232Z,7.30
2019-01-11T10:31:38.659Z,7.40
2019-01-11T10:34:19.555Z,7.50
2019-01-11T10:37:00.272Z,7.60
2019-01-11T10:39:41.313Z,7.70
2019-01-11T10:42:22.328Z,7.70
2019-01-11T10:45:03.402Z,7.70
2019-01-11T10:47:44.711Z,7.80
2019-01-11T10:50:25.246Z,7.80
2019-01-11T10:53:05.882Z,7.80
2019-01-11T10:55:46.308Z,7.80
2019-01-11T10:58:27.537Z,7.80
2019-01-11T11:01:07.986Z,7.80
2019-01-11T11:03:48.693Z,7.80
2019-01-11T11:06:29.637Z,7.80
2019-01-11T11:09:10.806Z,7.80
2019-01-11T11:11:52.027Z,7.80
2019-01-11T11:14:32.877Z,7.70
2019-01-11T11:17:13.272Z,7.70
2019-01-11T11:19:54.056Z,7.70
2019-01-11T11:22:35.093Z,7.80
2019-01-11T11:25:15.432Z,7.80
2019-01-11T11:27:56.549Z,7.80
2019-01-11T11:30:36.309Z,7.80
2019-01-11T11:33:24.256Z,7.80
2019-01-11T11:36:12.149Z,7.80
2019-01-11T11:39:00.100Z,7.90
2019-01-11T11:41:48.016Z,7.90
2019-01-11T11:44:35.956Z,8.00
2019-01-11T11:47:23.865Z,8.00
2019-01-11T11:50:31.053Z,8.00
2019-01-11T11:53:18.957Z,8.00
2019-01-11T11:56:06.873Z,8.10
2019-01-11T11:58:54.797Z,8.10
2019-01-11T12:01:46.616Z,8.00
2019-01-11T12:04:32.296Z,8.00
2019-01-11T12:07:20.249Z,8.00
2019-01-11T12:10:28.868Z,8.00
2019-01-11T12:16:10.688Z,8.30
2019-01-11T12:18:58.605Z,8.50
2019-01-11T12:21:39.455Z,8.60
2019-01-11T12:24:19.998Z,8.70
2019-01-11T12:27:00.849Z,8.60
2019-01-11T12:29:41.341Z,8.40
2019-01-11T12:32:21.958Z,8.30
2019-01-11T12:35:02.838Z,8.20
2019-01-11T12:37:31.404Z,8.20
2019-01-11T12:40:19.405Z,8.10
2019-01-11T12:43:07.414Z,8.10
2019-01-11T12:45:55.362Z,8.10
2019-01-11T12:48:43.263Z,8.10
2019-01-11T12:51:31.200Z,8.10
2019-01-11T12:54:32.888Z,8.10
2019-01-11T12:57:08.737Z,8.00
2019-01-11T12:59:56.642Z,7.90
2019-01-11T13:02:44.689Z,8.00
2019-01-11T13:05:32.664Z,8.00
2019-01-11T13:08:20.695Z,8.00
2019-01-11T13:11:08.756Z,7.90
2019-01-11T13:13:56.816Z,7.80
2019-01-11T13:16:44.764Z,7.80
2019-01-11T13:19:32.720Z,7.80
2019-01-11T13:25:41.599Z,7.80
2019-01-11T13:28:17.387Z,7.80
2019-01-11T13:31:05.332Z,7.70
2019-01-11T13:33:46.333Z,7.70
2019-01-11T13:36:27.489Z,7.70
2019-01-11T13:39:09.586Z,7.70
2019-01-11T13:41:50.866Z,7.70
2019-01-11T13:44:31.455Z,7.70
2019-01-11T13:47:11.919Z,7.70
2019-01-11T13:49:52.716Z,7.80
2019-01-11T13:52:33.169Z,7.80
2019-01-11T13:55:13.843Z,7.70
2019-01-11T13:57:54.809Z,7.70
2019-01-11T14:00:36.018Z,7.70
2019-01-11T14:03:16.693Z,7.70
2019-01-11T14:05:57.989Z,7.70
2019-01-11T14:08:38.709Z,7.70
2019-01-11T14:11:19.126Z,7.70
2019-01-11T14:14:00.109Z,7.60
2019-01-11T14:16:40.647Z,7.60
2019-01-11T14:19:21.835Z,7.60
2019-01-11T14:22:02.877Z,7.60
2019-01-11T14:24:48.074Z,7.60
2019-01-11T14:27:29.320Z,7.60
2019-01-11T14:30:10.879Z,7.60
2019-01-11T14:32:51.469Z,7.60
2019-01-11T14:35:32.627Z,7.60
2019-01-11T14:38:13.187Z,7.50
2019-01-11T14:40:54.471Z,7.50
2019-01-11T14:43:35.096Z,7.50
2019-01-11T14:46:23.030Z,7.50
2019-01-11T14:49:10.947Z,7.40
2019-01-11T14:51:58.869Z,7.40
2019-01-11T14:54:46.808Z,7.30
2019-01-11T14:57:34.782Z,7.30
2019-01-11T15:00:22.908Z,7.30
2019-01-11T15:03:10.817Z,7.40
2019-01-11T15:05:58.769Z,7.30
2019-01-11T15:08:46.674Z,7.30
2019-01-11T15:11:34.617Z,7.30
2019-01-11T15:14:04.261Z,7.30
2019-01-11T15:16:32.918Z,7.30
2019-01-11T15:19:20.907Z,7.30
2019-01-11T15:22:08.811Z,7.30
2019-01-11T15:24:56.757Z,7.20
2019-01-11T15:27:44.664Z,7.20
2019-01-11T15:30:32.655Z,7.20
2019-01-11T15:33:36.127Z,7.20
2019-01-11T15:36:03.179Z,7.20
2019-01-11T15:38:44.022Z,7.20
2019-01-11T15:41:24.558Z,7.20
2019-01-11T15:44:05.065Z,7.20
2019-01-11T15:46:46.121Z,7.20
2019-01-11T15:49:26.533Z,7.20
2019-01-11T15:52:07.178Z,7.10
2019-01-11T15:54:47.634Z,7.20
2019-01-11T15:57:30.318Z,7.10
2019-01-11T16:00:10.873Z,7.10
2019-01-11T16:02:51.798Z,7.10
2019-01-11T16:05:32.216Z,7.20
2019-01-11T16:08:13.230Z,7.20
2019-01-11T16:10:53.643Z,7.10
2019-01-11T16:13:34.796Z,7.10
2019-01-11T16:16:15.653Z,7.10
2019-01-11T16:18:56.471Z,7.20
2019-01-11T16:21:37.297Z,7.10
2019-01-11T16:24:18.571Z,7.10
2019-01-11T16:26:59.113Z,7.10
2019-01-11T16:29:40.353Z,7.10
2019-01-11T16:32:21.377Z,7.10
2019-01-11T16:35:02.561Z,7.10
2019-01-11T16:37:42.969Z,7.10
2019-01-11T16:40:23.766Z,7.10
2019-01-11T16:43:04.649Z,7.00
2019-01-11T16:45:45.533Z,7.00
2019-01-11T16:48:26.520Z,7.00
2019-01-11T16:51:07.470Z,7.00
2019-01-11T16:53:48.390Z,7.00
2019-01-11T16:56:29.258Z,7.00
2019-01-11T16:59:10.463Z,7.00
2019-01-11T17:01:50.971Z,7.00
2019-01-11T17:04:31.694Z,7.20
2019-01-11T17:07:12.906Z,7.50
2019-01-11T17:09:53.732Z,7.70
2019-01-11T17:12:34.248Z,7.90
2019-01-11T17:15:14.725Z,8.00
2019-01-11T17:17:55.509Z,8.00
2019-01-11T17:20:35.882Z,7.70
2019-01-11T17:23:16.879Z,7.50
2019-01-11T17:25:57.366Z,7.30
2019-01-11T17:28:38.210Z,7.20
2019-01-11T17:31:18.988Z,7.20
2019-01-11T17:33:59.419Z,7.10
2019-01-11T17:36:40.506Z,7.10
2019-01-11T17:39:21.769Z,7.00
2019-01-11T17:42:02.365Z,7.00
2019-01-11T17:44:43.165Z,7.00
2019-01-11T17:47:23.910Z,7.00
2019-01-11T17:50:04.778Z,6.90
2019-01-11T17:52:45.132Z,6.90
2019-01-11T17:55:25.817Z,6.90
2019-01-11T17:58:06.342Z,6.90
2019-01-11T18:00:47.190Z,6.90
2019-01-11T18:03:27.569Z,6.90
2019-01-11T18:06:08.530Z,6.80
2019-01-11T18:08:37.084Z,6.80
2019-01-11T18:11:25.046Z,6.80
2019-01-11T18:14:13.016Z,6.80
2019-01-11T18:17:00.969Z,6.80
2019-01-11T18:23:25.046Z,6.80
2019-01-11T18:26:12.949Z,6.80
2019-01-11T18:29:00.885Z,6.80
2019-01-11T18:31:42.108Z,6.80
2019-01-11T18:34:10.712Z,6.80
2019-01-11T18:36:39.481Z,6.80
2019-01-11T18:39:08.641Z,6.80
2019-01-11T18:41:37.283Z,6.80
2019-01-11T18:44:06.049Z,6.80
2019-01-11T18:46:34.653Z,6.80
2019-01-11T18:49:04.434Z,6.80
2019-01-11T18:51:33.073Z,6.80
2019-01-11T18:54:54.519Z,6.80
2019-01-11T19:03:44.263Z,6.70
2019-01-11T19:06:34.202Z,6.70
2019-01-11T19:12:30.970Z,6.60
2019-01-11T19:15:42.153Z,6.60
2019-01-11T19:18:30.389Z,6.60
2019-01-11T19:21:20.345Z,6.60
2019-01-11T19:23:51.209Z,6.60
2019-01-11T19:26:59.945Z,6.60
2019-01-11T19:29:48.129Z,6.60
2019-01-11T19:35:40.608Z,6.60
2019-01-11T19:38:22.365Z,6.50
2019-01-11T19:41:03.264Z,6.50
2019-01-11T19:43:36.409Z,6.50
2019-01-11T19:46:05.238Z,6.50
2019-01-11T19:48:38.084Z,6.50
2019-01-11T19:51:09.790Z,6.50
2019-01-11T19:53:38.460Z,6.40
2019-01-11T19:56:10.329Z,6.40
2019-01-11T19:58:39.010Z,6.40
2019-01-11T20:01:10.461Z,6.40
2019-01-11T20:03:46.746Z,6.40
2019-01-11T20:07:17.899Z,6.40
2019-01-11T20:09:43.853Z,6.80
2019-01-11T20:13:04.576Z,7.30
2019-01-11T20:16:11.240Z,7.50
2019-01-11T20:19:31.266Z,7.20
2019-01-11T20:25:12.015Z,6.70
2019-01-11T20:27:55.956Z,6.60
2019-01-11T20:30:40.969Z,6.50
2019-01-11T20:33:21.475Z,6.40
2019-01-11T20:36:01.950Z,6.30
2019-01-11T20:38:42.421Z,6.30
2019-01-11T20:41:23.456Z,6.20
2019-01-11T20:43:52.016Z,6.20
2019-01-11T20:46:20.744Z,6.10
2019-01-11T20:48:49.677Z,6.10
2019-01-11T20:51:37.673Z,6.10
2019-01-11T20:57:33.557Z,6.00
2019-01-11T21:00:41.023Z,6.00
2019-01-11T21:03:41.274Z,6.00
2019-01-11T21:09:26.229Z,6.00
2019-01-11T21:12:14.189Z,6.00
2019-01-11T21:15:02.205Z,6.00
2019-01-11T21:18:02.128Z,5.90
2019-01-11T21:20:39.755Z,5.90
2019-01-11T21:23:27.778Z,6.00
2019-01-11T21:26:08.834Z,6.00
2019-01-11T21:28:50.173Z,6.00
2019-01-11T21:31:31.018Z,6.00
2019-01-11T21:34:12.329Z,6.00
2019-01-11T21:36:53.439Z,6.00
2019-01-11T21:39:34.321Z,6.00
2019-01-11T21:42:19.076Z,6.00
2019-01-11T21:44:57.461Z,6.00
2019-01-11T21:47:38.425Z,6.00
2019-01-11T21:50:19.397Z,6.00
2019-01-11T21:52:59.930Z,6.00
2019-01-11T21:55:40.822Z,6.10
2019-01-11T21:58:09.373Z,6.10
2019-01-11T22:00:38.628Z,6.10
2019-01-11T22:03:07.930Z,6.10
2019-01-11T22:05:36.497Z,6.10
2019-01-11T22:08:05.256Z,6.10
2019-01-11T22:10:33.829Z,6.10
2019-01-11T22:13:21.911Z,6.10
2019-01-11T22:16:09.844Z,6.10
2019-01-11T22:18:57.798Z,6.10
2019-01-11T22:21:45.749Z,6.10
2019-01-11T22:24:33.816Z,6.10
2019-01-11T22:27:21.785Z,6.10
2019-01-11T22:30:30.500Z,6.10
2019-01-11T22:36:12.010Z,6.10
2019-01-11T22:38:59.951Z,6.00
2019-01-11T22:41:28.552Z,6.00
2019-01-11T22:43:57.121Z,6.00
2019-01-11T22:46:25.795Z,6.00
2019-01-11T22:48:54.769Z,6.00
2019-01-11T22:51:23.325Z,6.10
2019-01-11T22:53:51.896Z,6.10
2019-01-11T22:56:39.842Z,6.10
2019-01-11T22:59:27.861Z,6.20
2019-01-11T23:02:36.550Z,6.20
2019-01-11T23:05:24.461Z,6.20
2019-01-11T23:08:33.139Z,6.20
2019-01-11T23:11:40.377Z,6.20
2019-01-11T23:14:28.328Z,6.30
2019-01-11T23:17:36.966Z,6.30
2019-01-11T23:20:24.900Z,6.30
2019-01-11T23:23:12.941Z,6.30
2019-01-11T23:26:00.837Z,6.30
2019-01-11T23:28:48.787Z,6.40
2019-01-11T23:31:36.768Z,6.40
2019-01-11T23:34:24.654Z,6.40
2019-01-11T23:37:12.580Z,6.40
2019-01-11T23:39:52.859Z,6.40
2019-01-11T23:42:33.517Z,6.40
2019-01-11T23:45:14.505Z,6.40
2019-01-11T23:47:55.759Z,6.40
2019-01-11T23:50:36.918Z,6.40
2019-01-11T23:53:17.464Z,6.40
2019-01-11T23:55:59.054Z,6.40
2019-01-11T23:58:40.369Z,6.40
